LFBDLFBA

Guest
Details From LFBD - Bordeaux Merignac
To LFBA - Agen la Garenne
Flight Number -
Tags generated
Created
Modified
Stats Distance 68 nm / 127 km
Max Altitude 2,600 ft / 792 m
Waypoints 3
Social Downloads 2
Likes 0
Share VATSIM

Download

Looking for another format? Having issues loading an existing format? Contact us
Advertisement - Login to hide

Notes

Basic altitude profile: - Ascent Rate: 2500ft/min - Ascent Speed: 250kts - Cruise Altitude: 35000ft - Cruise Speed: 420kts - Descent Rate: 1500ft/min - Descent Speed: 250kts

Route

LFBD SAU32 LFBA

ID Type Via Altitude Latitude Longitude Leg Dist Tot Dist Heading (true) Name
O LFBD APT - 0 ft / 0 m 44.82876˚ -0.71476˚ - 0 nm - Bordeaux Merignac
SAU32 FIX - 2,600 ft / 792 m 44.28778˚ 0.35806˚ 56 nm 56 nm 125° / 126° -
O LFBA APT - 0 ft / 0 m 44.17403˚ 0.59296˚ 12 nm 68 nm 124° / 124° Agen la Garenne

Altitude Profile

Advertisement - Login to hide

LFBD

Details ICAO LFBD (BOD)
Name Bordeaux Merignac
Region France
Timezone Europe/Paris (UTC+2.0)
Stats Elevation 166 ft / 51 m (AMSL)
Location 44.828762° -0.714755°
Runways 2
Magnetic Variation 0.010° W

METAR

LFBD 261000Z AUTO VRB02KT 9999 FEW034/// SCT064/// ///CB 25/16 Q1012 TEMPO 24020G45KT 1200 TSRAGR BKN008 OVC030CB

Decode

TAF

TAF AMD LFBD 260602Z 2606/2712 VRB03KT 9999 SCT070TCU TEMPO 2606/2712 -SHRA FEW040CB BKN050TCU PROB40 TEMPO 2606/2608 4000 BR BKN005 PROB40 TEMPO 2611/2621 24015G30KT 2000 TSRA BKN010 BKN040CB PROB30 TEMPO 2611/2613 24020G45KT 1200 TSRAGR BKN008 OVC030CB BECMG 2618/2620 32005KT PROB40 TEMPO 2703/2709 BKN008 TX24/2615Z TN15/2703Z

Decode

Departure Runways

ID Width Length Bearing (true) Bearing (mag) Surface Threshold Offset Overrun Length
05 148 ft / 45 m 10,164 ft / 3,098 m 45.48° 45.49° Asphalt 26 ft / 8 m 1,145 ft / 349 m
11 148 ft / 45 m 7,931 ft / 2,417 m 106.45° 106.46° Asphalt 26 ft / 8 m 1,198 ft / 365 m
23 148 ft / 45 m 10,164 ft / 3,098 m 225.50° 225.51° Asphalt 39 ft / 12 m 1,266 ft / 386 m
29 148 ft / 45 m 7,931 ft / 2,417 m 286.47° 286.48° Asphalt 33 ft / 10 m 1,201 ft / 366 m

LFBA

Details ICAO LFBA (AGF)
Name Agen la Garenne
Region France
Timezone Europe/Paris (UTC+2.0)
Stats Elevation 204 ft / 62 m (AMSL)
Location 44.174025° 0.592961°
Runways 1
Magnetic Variation 0.396° E

METAR

LFBA 261000Z AUTO 15010KT 110V190 9999 BKN042 23/15 Q1012 NOSIG

Decode

TAF

Not found

Destination Runways

ID Width Length Bearing (true) Bearing (mag) Surface Threshold Offset Overrun Length
11 98 ft / 30 m 7,088 ft / 2,161 m 112.24° 111.84° Asphalt 541 ft / 165 m 0 ft / 0 m
29 98 ft / 30 m 7,088 ft / 2,161 m 292.26° 291.86° Asphalt 1,312 ft / 400 m 0 ft / 0 m

Approach Navaids

Runway Type Ident Frequency Range Bearing (true) Bearing (mag) Slope Elevation
29 Localiser AG 110.35 MHz 18 nm / 33 km 292.25° 291.86° - 213 ft / 65 m (AMSL)
29 Glidescope AG 110.35 MHz 10 nm / 19 km 292.25° 291.86° 3.30° 240 ft / 73 m (AMSL)
29 DME AG 110.35 MHz 18 nm / 33 km - - - 240 ft / 73 m (AMSL)

Popular Alternatives